createdAt,value
2022-10-18T16:02:02.879Z,41.20
2022-10-18T16:03:35.189Z,47.40
2022-10-18T16:05:08.844Z,43.20
2022-10-18T16:06:40.590Z,40.00
2022-10-18T16:08:23.313Z,36.80
2022-10-18T16:09:54.998Z,33.60
2022-10-18T16:11:26.735Z,33.40
2022-10-18T16:12:58.544Z,27.40
2022-10-18T16:14:30.547Z,38.00
2022-10-18T16:16:02.532Z,34.80
2022-10-18T16:17:34.372Z,39.00
2022-10-18T16:19:06.425Z,47.00
2022-10-18T16:20:38.196Z,51.40
2022-10-18T16:23:50.698Z,60.00
2022-10-18T16:25:25.527Z,62.80
2022-10-18T16:26:57.342Z,68.00
2022-10-18T16:28:31.825Z,67.80
2022-10-18T16:30:14.327Z,67.80
2022-10-18T16:31:46.795Z,69.00
2022-10-18T16:33:21.429Z,70.00
2022-10-18T16:34:53.505Z,74.25
2022-10-18T16:36:31.828Z,73.75
2022-10-18T16:38:03.495Z,77.25
2022-10-18T16:39:35.653Z,74.50
2022-10-18T16:41:08.052Z,78.75
2022-10-18T16:42:39.747Z,78.25
2022-10-18T16:44:13.037Z,84.50
2022-10-18T16:45:44.919Z,83.75
2022-10-18T16:47:16.815Z,98.50
2022-10-18T16:48:49.178Z,93.75
2022-10-18T16:50:22.237Z,98.00
2022-10-18T16:51:54.313Z,103.00
2022-10-18T16:53:26.367Z,94.75
2022-10-18T16:54:58.063Z,109.50
2022-10-18T16:56:31.138Z,108.80
2022-10-18T16:58:03.037Z,110.75
2022-10-18T16:59:34.834Z,108.00
2022-10-18T17:01:08.881Z,121.40
2022-10-18T17:02:40.924Z,108.00
2022-10-18T17:04:12.594Z,121.60
2022-10-18T17:05:44.321Z,121.80
2022-10-18T17:08:58.530Z,293.50
2022-10-18T17:10:30.412Z,307.00
2022-10-18T17:12:02.105Z,305.75
2022-10-18T17:13:33.873Z,236.67
2022-10-18T17:15:06.107Z,201.00
2022-10-18T17:16:38.904Z,176.00
2022-10-18T17:18:12.911Z,174.25
2022-10-18T17:19:44.655Z,186.75
2022-10-18T17:21:16.431Z,169.75
2022-10-18T17:22:48.367Z,170.50
2022-10-18T17:24:20.304Z,156.75
2022-10-18T17:26:04.887Z,169.75
2022-10-18T17:27:40.620Z,152.50
2022-10-18T17:29:12.456Z,157.50
2022-10-18T17:30:44.797Z,158.00
2022-10-18T17:32:16.705Z,142.50
2022-10-18T17:33:48.651Z,147.25
2022-10-18T17:35:21.643Z,146.25
2022-10-18T17:36:54.356Z,144.00
2022-10-18T17:38:26.124Z,142.00
2022-10-18T17:39:57.854Z,151.50
2022-10-18T17:41:29.693Z,140.50
2022-10-18T17:43:01.933Z,140.25
2022-10-18T17:44:33.682Z,134.25
2022-10-18T17:46:05.677Z,140.75
2022-10-18T17:47:37.512Z,142.25
2022-10-18T17:49:10.459Z,139.25
2022-10-18T17:50:42.183Z,136.25
2022-10-18T17:52:13.942Z,135.25
2022-10-18T17:53:45.772Z,147.50
2022-10-18T17:55:17.679Z,146.00
2022-10-18T17:56:52.334Z,143.50
2022-10-18T17:58:26.196Z,153.75
2022-10-18T17:59:59.555Z,142.25
2022-10-18T18:01:31.411Z,154.00
2022-10-18T18:03:03.253Z,151.25
2022-10-18T18:04:34.957Z,157.75
2022-10-18T18:06:13.669Z,173.50
2022-10-18T18:07:46.002Z,163.00
2022-10-18T18:09:17.775Z,163.00
2022-10-18T18:10:54.294Z,155.25
2022-10-18T18:12:26.126Z,137.75
2022-10-18T18:13:58.064Z,151.00
2022-10-18T18:15:29.816Z,163.25
2022-10-18T18:17:01.967Z,166.75
2022-10-18T18:18:33.700Z,161.75
2022-10-18T18:20:06.621Z,158.75
2022-10-18T18:21:39.081Z,176.25
2022-10-18T18:23:10.808Z,167.75
2022-10-18T18:24:42.776Z,173.25
2022-10-18T18:26:14.679Z,174.50
2022-10-18T18:27:46.377Z,167.00
2022-10-18T18:29:18.160Z,166.50
2022-10-18T18:30:49.868Z,162.25
2022-10-18T18:32:21.663Z,163.00
2022-10-18T18:33:55.402Z,175.00
2022-10-18T18:35:27.126Z,180.00
2022-10-18T18:36:58.772Z,168.00
2022-10-18T18:38:31.099Z,183.25
2022-10-18T18:40:02.829Z,176.50
2022-10-18T18:41:34.978Z,175.00
2022-10-18T18:43:22.621Z,156.50
2022-10-18T18:44:58.539Z,169.00
2022-10-18T18:46:33.185Z,194.50
2022-10-18T18:48:05.185Z,179.50
2022-10-18T18:49:36.931Z,197.25
2022-10-18T18:51:11.165Z,178.25
2022-10-18T18:52:42.932Z,163.50
2022-10-18T18:54:14.984Z,176.25
2022-10-18T18:55:46.712Z,167.00
2022-10-18T18:57:18.396Z,175.25
2022-10-18T18:58:50.341Z,176.50
2022-10-18T19:00:22.100Z,164.25
2022-10-18T19:01:54.002Z,166.25
2022-10-18T19:03:25.875Z,180.50
2022-10-18T19:04:57.626Z,164.25
2022-10-18T19:06:30.220Z,155.50
2022-10-18T19:08:02.627Z,183.00
2022-10-18T19:09:37.911Z,177.25
2022-10-18T19:11:12.337Z,172.50
2022-10-18T19:12:44.123Z,193.00
2022-10-18T19:14:15.896Z,171.00
2022-10-18T19:15:48.931Z,175.75
2022-10-18T19:17:21.959Z,173.00
2022-10-18T19:19:14.879Z,191.50
2022-10-18T19:20:46.741Z,174.25
2022-10-18T19:22:18.487Z,187.50
2022-10-18T19:23:50.471Z,186.00
2022-10-18T19:25:24.758Z,185.75
2022-10-18T19:27:12.680Z,193.50
2022-10-18T19:28:44.451Z,179.50
2022-10-18T19:30:16.274Z,181.75
2022-10-18T19:31:48.454Z,173.75
2022-10-18T19:33:35.543Z,187.50
2022-10-18T19:35:14.066Z,179.75
2022-10-18T19:36:46.876Z,181.00
2022-10-18T19:38:18.675Z,173.50
2022-10-18T19:39:50.402Z,177.00
2022-10-18T19:42:55.548Z,264.00
2022-10-18T19:44:29.583Z,258.75
2022-10-18T19:46:04.790Z,246.67
2022-10-18T19:47:38.439Z,213.33
2022-10-18T19:49:10.329Z,202.67
2022-10-18T19:50:41.980Z,166.50
2022-10-18T19:52:13.855Z,179.75
2022-10-18T19:53:45.525Z,159.25
2022-10-18T19:55:18.862Z,173.25
2022-10-18T19:56:50.719Z,154.75
2022-10-18T19:58:22.380Z,160.75
2022-10-18T19:59:56.065Z,159.50
2022-10-18T20:01:28.634Z,164.00
2022-10-18T20:03:00.362Z,154.50
2022-10-18T20:04:34.685Z,163.00
2022-10-18T20:06:06.505Z,167.50
2022-10-18T20:07:41.174Z,163.75
2022-10-18T20:09:16.189Z,160.75
2022-10-18T20:10:51.276Z,160.00
2022-10-18T20:12:22.976Z,156.00
2022-10-18T20:13:54.864Z,154.50
2022-10-18T20:15:27.614Z,141.75
2022-10-18T20:16:59.547Z,142.25
2022-10-18T20:18:31.306Z,157.75
2022-10-18T20:20:03.107Z,148.50
2022-10-18T20:21:35.993Z,155.75
2022-10-18T20:23:08.007Z,139.25
2022-10-18T20:24:39.842Z,155.50
2022-10-18T20:26:18.190Z,151.25
2022-10-18T20:27:51.537Z,149.75
2022-10-18T20:29:25.318Z,137.75
2022-10-18T20:31:13.216Z,153.25
2022-10-18T20:32:44.890Z,144.50
2022-10-18T20:34:16.663Z,132.25
2022-10-18T20:35:52.086Z,143.50
2022-10-18T20:37:24.079Z,143.50
2022-10-18T20:38:56.016Z,155.00
2022-10-18T20:40:27.781Z,152.75
2022-10-18T20:41:59.482Z,160.75
2022-10-18T20:43:31.238Z,155.00
2022-10-18T20:46:40.726Z,152.00
2022-10-18T20:48:12.475Z,137.50
2022-10-18T20:49:44.567Z,133.50
2022-10-18T20:51:17.127Z,138.50
2022-10-18T20:52:51.330Z,142.75
2022-10-18T20:54:23.162Z,135.75
2022-10-18T20:56:11.415Z,131.25
2022-10-18T20:57:43.333Z,133.00
2022-10-18T20:59:15.537Z,129.00
2022-10-18T21:00:47.349Z,137.25
2022-10-18T21:02:19.168Z,137.25
2022-10-18T21:03:51.810Z,147.50
2022-10-18T21:05:23.497Z,136.75
2022-10-18T21:06:55.241Z,134.50
2022-10-18T21:08:26.960Z,146.00
2022-10-18T21:09:58.700Z,145.25
2022-10-18T21:11:30.757Z,140.00
2022-10-18T21:13:02.589Z,147.25
2022-10-18T21:14:34.323Z,146.00
2022-10-18T21:16:06.284Z,140.75
2022-10-18T21:17:38.015Z,139.00
2022-10-18T21:19:14.649Z,142.50
2022-10-18T21:20:46.363Z,129.25
2022-10-18T21:22:18.071Z,140.75
2022-10-18T21:23:50.299Z,149.25
2022-10-18T21:25:22.223Z,153.75
2022-10-18T21:26:54.745Z,133.00
2022-10-18T21:28:26.551Z,139.75
2022-10-18T21:29:58.382Z,134.50
2022-10-18T21:31:31.694Z,146.75
2022-10-18T21:33:04.539Z,144.75
2022-10-18T21:34:36.383Z,147.00
2022-10-18T21:36:08.271Z,134.00
2022-10-18T21:37:40.036Z,140.00
2022-10-18T21:39:16.670Z,136.00
2022-10-18T21:40:48.437Z,142.25
2022-10-18T21:42:20.188Z,128.00
2022-10-18T21:43:53.500Z,132.50
2022-10-18T21:45:25.202Z,138.50
2022-10-18T21:46:57.062Z,141.00
2022-10-18T21:48:29.050Z,127.75
2022-10-18T21:50:00.817Z,122.75
2022-10-18T21:51:32.628Z,132.25
2022-10-18T21:53:04.344Z,114.75
2022-10-18T21:54:36.125Z,129.50
2022-10-18T21:56:12.890Z,127.50
2022-10-18T21:57:44.651Z,125.00
2022-10-18T21:59:16.414Z,126.00
2022-10-18T22:00:48.206Z,122.20
2022-10-18T22:02:19.917Z,118.40
2022-10-18T22:03:52.877Z,126.40
2022-10-18T22:05:24.619Z,123.40
2022-10-18T22:06:56.298Z,118.60
2022-10-18T22:08:28.804Z,113.40
2022-10-18T22:10:00.539Z,111.40
2022-10-18T22:11:38.353Z,108.00
2022-10-18T22:13:10.073Z,109.50
2022-10-18T22:14:41.872Z,139.50
2022-10-18T22:16:14.541Z,131.50
2022-10-18T22:17:46.259Z,114.00
2022-10-18T22:19:18.039Z,129.00
2022-10-18T22:21:00.190Z,114.20
2022-10-18T22:22:31.930Z,111.50
2022-10-18T22:24:05.479Z,95.00
2022-10-18T22:25:37.204Z,85.50
2022-10-18T22:27:08.935Z,85.00
2022-10-18T22:28:41.149Z,87.75
2022-10-18T22:30:12.898Z,85.25
2022-10-18T22:31:46.207Z,83.00
2022-10-18T22:33:18.098Z,91.50
2022-10-18T22:34:49.772Z,103.00
